Time;durP1;ratioP1;P1;durP2;ratioP2;P2;SDS_P1;SDS_P2;PMS_P1;PMS_P2;Temp;Humidity;BMP_temperature;BMP_pressure;BME280_temperature;BME280_humidity;BME280_pressure;Samples;Min_cycle;Max_cycle;Signal;HPM_P1;HPM_P2
2023/09/18 00:02:05;;;;;;;5.43;4.07;;;18.90;99.90;;;;;;5013885;28;20242;-92
2023/09/18 00:04:30;;;;;;;6.93;3.85;;;18.80;99.90;;;;;;5008319;28;20183;-96
2023/09/18 00:06:56;;;;;;;5.68;3.80;;;18.80;99.90;;;;;;5013585;28;20191;-91
2023/09/18 00:09:22;;;;;;;3.97;3.58;;;18.80;99.90;;;;;;5014610;28;20266;-94
2023/09/18 00:11:47;;;;;;;4.53;3.67;;;18.80;99.90;;;;;;5013583;28;20585;-95
2023/09/18 00:14:13;;;;;;;4.10;3.70;;;18.70;99.90;;;;;;5013618;28;20629;-93
2023/09/18 00:16:39;;;;;;;5.03;4.10;;;18.60;99.90;;;;;;5014618;28;20642;-96
2023/09/18 00:19:07;;;;;;;5.25;3.65;;;18.50;99.90;;;;;;5013833;28;20187;-94
2023/09/18 00:21:35;;;;;;;4.18;3.70;;;18.40;99.90;;;;;;5013532;28;20195;-95
2023/09/18 00:24:00;;;;;;;5.78;3.88;;;18.30;99.90;;;;;;5013451;28;20625;-95
2023/09/18 00:26:26;;;;;;;3.85;3.33;;;18.30;99.90;;;;;;5006295;28;20188;-93
2023/09/18 00:28:52;;;;;;;5.88;3.63;;;18.30;99.90;;;;;;5012978;28;20961;-94
2023/09/18 00:31:20;;;;;;;4.93;3.75;;;18.30;99.90;;;;;;5013732;28;20185;-96
2023/09/18 00:33:46;;;;;;;4.07;3.70;;;18.30;99.90;;;;;;5008417;28;20180;-94
2023/09/18 00:36:12;;;;;;;7.07;4.13;;;18.40;99.90;;;;;;5013758;28;20218;-88
2023/09/18 00:38:37;;;;;;;5.05;3.80;;;18.40;99.90;;;;;;5013290;28;20266;-95
2023/09/18 00:41:09;;;;;;;5.15;3.80;;;18.40;99.90;;;;;;5014903;28;20198;-96
2023/09/18 00:43:35;;;;;;;5.32;4.10;;;18.30;99.90;;;;;;5013600;28;20179;-96
2023/09/18 00:46:01;;;;;;;4.25;3.85;;;18.10;99.90;;;;;;5014076;28;20241;-94
2023/09/18 00:48:28;;;;;;;4.68;3.83;;;18.20;99.90;;;;;;5013642;28;20190;-95
2023/09/18 00:50:54;;;;;;;5.43;3.70;;;18.20;99.90;;;;;;5013185;28;20575;-86
2023/09/18 00:53:23;;;;;;;4.88;3.72;;;18.10;99.90;;;;;;5014518;28;20183;-88
2023/09/18 00:55:52;;;;;;;4.82;3.30;;;18.00;99.90;;;;;;4999896;28;20234;-87
2023/09/18 00:58:18;;;;;;;6.28;3.60;;;17.90;99.90;;;;;;5017201;28;20202;-87
2023/09/18 01:00:44;;;;;;;5.40;3.60;;;17.90;99.90;;;;;;5017371;28;20183;-87
2023/09/18 01:03:11;;;;;;;4.30;3.90;;;17.90;99.90;;;;;;5013448;28;20187;-87
2023/09/18 01:05:36;;;;;;;4.85;3.78;;;18.00;99.90;;;;;;5013476;28;20201;-87
2023/09/18 01:08:04;;;;;;;5.40;4.00;;;18.00;99.90;;;;;;5016011;28;20197;-87
2023/09/18 01:10:36;;;;;;;5.20;4.38;;;17.90;99.90;;;;;;5008021;28;20207;-87
2023/09/18 01:13:13;;;;;;;6.53;4.15;;;17.90;99.90;;;;;;4993397;28;20633;-86
2023/09/18 01:15:55;;;;;;;5.35;4.10;;;17.70;99.90;;;;;;5015770;28;20626;-87
2023/09/18 01:18:20;;;;;;;7.00;4.20;;;17.60;99.90;;;;;;5015616;28;20194;-88
2023/09/18 01:20:46;;;;;;;4.95;3.67;;;17.50;99.90;;;;;;5015772;28;20179;-87
2023/09/18 01:23:12;;;;;;;4.50;4.05;;;17.50;99.90;;;;;;5015628;28;21142;-86
2023/09/18 01:25:37;;;;;;;5.10;4.30;;;17.60;99.90;;;;;;5015754;28;20175;-86
2023/09/18 01:28:03;;;;;;;5.80;3.92;;;17.60;99.90;;;;;;5015615;28;20277;-87
2023/09/18 01:30:29;;;;;;;4.85;4.22;;;17.60;99.90;;;;;;5015674;28;20803;-87
2023/09/18 01:32:58;;;;;;;5.82;3.75;;;17.60;99.90;;;;;;5016234;28;20233;-86
2023/09/18 01:35:29;;;;;;;4.80;3.90;;;17.70;99.90;;;;;;5012444;28;20175;-86
2023/09/18 01:37:59;;;;;;;4.28;3.90;;;17.70;99.90;;;;;;5014917;28;20703;-86
2023/09/18 01:40:26;;;;;;;5.07;4.05;;;17.60;99.90;;;;;;5016621;28;20629;-87
2023/09/18 01:42:52;;;;;;;9.20;4.00;;;17.60;99.90;;;;;;5015247;28;20202;-87
2023/09/18 01:45:18;;;;;;;16.67;4.13;;;17.50;99.90;;;;;;5016751;28;20175;-88
2023/09/18 01:47:45;;;;;;;6.40;4.10;;;17.40;99.90;;;;;;5015218;28;20191;-88
2023/09/18 01:50:11;;;;;;;5.57;4.13;;;17.40;99.90;;;;;;5015434;28;20589;-85
2023/09/18 01:52:37;;;;;;;7.68;4.00;;;17.30;99.90;;;;;;5014965;28;20270;-86
2023/09/18 01:55:07;;;;;;;5.10;3.95;;;17.30;99.90;;;;;;5014936;28;20187;-88
2023/09/18 01:57:33;;;;;;;4.97;3.92;;;17.40;99.90;;;;;;5014632;28;20662;-87
2023/09/18 01:59:59;;;;;;;4.90;3.92;;;17.40;99.90;;;;;;5015053;28;20214;-87
2023/09/18 02:02:24;;;;;;;7.25;4.10;;;17.40;99.90;;;;;;5016421;28;20511;-87
2023/09/18 02:04:50;;;;;;;4.30;3.90;;;17.40;99.90;;;;;;5009414;28;20176;-87
2023/09/18 02:07:16;;;;;;;4.35;3.90;;;17.40;99.90;;;;;;5014802;28;20186;-87
2023/09/18 02:09:41;;;;;;;6.18;3.92;;;17.40;99.90;;;;;;5015871;28;20186;-86
2023/09/18 02:12:07;;;;;;;6.30;3.95;;;17.30;99.90;;;;;;5014686;28;20234;-86
2023/09/18 02:14:33;;;;;;;4.95;3.72;;;17.40;99.90;;;;;;5016049;28;20191;-87
2023/09/18 02:16:59;;;;;;;6.35;4.15;;;17.40;99.90;;;;;;5015759;28;20246;-87
2023/09/18 02:19:26;;;;;;;4.88;4.05;;;17.30;99.90;;;;;;5014624;28;20262;-86
2023/09/18 02:21:52;;;;;;;6.90;3.80;;;17.20;99.90;;;;;;5014655;28;20191;-86
2023/09/18 02:24:19;;;;;;;5.28;3.97;;;17.00;99.90;;;;;;5014219;28;20621;-88
2023/09/18 02:26:45;;;;;;;7.90;3.97;;;17.10;99.90;;;;;;5014487;28;20240;-87
2023/09/18 02:29:13;;;;;;;6.00;4.03;;;17.10;99.90;;;;;;5015694;28;20187;-87
2023/09/18 02:31:39;;;;;;;4.72;3.83;;;17.10;99.90;;;;;;5014229;28;20179;-86
2023/09/18 02:34:05;;;;;;;6.10;3.88;;;17.20;99.90;;;;;;5010333;28;20225;-85
2023/09/18 02:36:30;;;;;;;4.53;3.80;;;17.20;99.90;;;;;;5014226;28;20218;-86
2023/09/18 02:38:56;;;;;;;6.22;3.95;;;17.20;99.90;;;;;;5010223;28;20236;-86
2023/09/18 02:41:22;;;;;;;6.53;4.13;;;17.10;99.90;;;;;;5009723;28;20175;-86
2023/09/18 02:43:47;;;;;;;6.88;3.83;;;17.10;99.90;;;;;;5015378;28;20229;-87
2023/09/18 02:46:13;;;;;;;6.30;4.40;;;17.10;99.90;;;;;;5015436;28;20179;-88
2023/09/18 02:48:39;;;;;;;6.47;4.30;;;17.10;99.90;;;;;;5013871;28;20664;-86
2023/09/18 02:51:05;;;;;;;6.00;4.35;;;16.90;99.90;;;;;;5015382;28;20512;-86
2023/09/18 02:53:31;;;;;;;7.68;3.80;;;16.90;99.90;;;;;;5013808;28;20187;-86
2023/09/18 02:55:58;;;;;;;6.55;4.03;;;16.90;99.90;;;;;;4997833;28;20203;-86
2023/09/18 02:58:25;;;;;;;6.93;4.45;;;16.90;99.90;;;;;;5013755;28;20187;-86
2023/09/18 03:00:53;;;;;;;5.63;4.32;;;16.80;99.90;;;;;;5013805;28;20696;-88
2023/09/18 03:03:19;;;;;;;5.78;4.20;;;16.70;99.90;;;;;;5011252;28;20205;-87
2023/09/18 03:05:45;;;;;;;5.05;4.28;;;16.70;99.90;;;;;;5012242;28;20576;-86
2023/09/18 03:08:12;;;;;;;5.88;3.97;;;16.70;99.90;;;;;;5013519;28;20266;-86
2023/09/18 03:10:40;;;;;;;5.20;3.83;;;16.80;99.90;;;;;;5013246;28;20183;-86
2023/09/18 03:13:06;;;;;;;5.93;4.05;;;16.80;99.90;;;;;;5013594;28;20183;-85
2023/09/18 03:15:32;;;;;;;5.15;4.00;;;16.80;99.90;;;;;;5014247;28;20369;-85
2023/09/18 03:18:00;;;;;;;6.15;3.95;;;16.80;99.90;;;;;;5013316;28;20274;-86
2023/09/18 03:20:27;;;;;;;5.38;4.25;;;16.70;99.90;;;;;;5007377;28;20176;-86
2023/09/18 03:22:55;;;;;;;5.57;3.95;;;16.80;99.90;;;;;;5012838;28;20187;-87
2023/09/18 03:25:21;;;;;;;5.22;4.10;;;16.90;99.90;;;;;;5013486;28;20202;-87
2023/09/18 03:27:47;;;;;;;5.18;4.30;;;16.80;99.90;;;;;;5002980;28;20603;-87
2023/09/18 03:30:15;;;;;;;4.45;3.97;;;16.80;99.90;;;;;;5007506;28;20572;-85
2023/09/18 03:32:42;;;;;;;4.50;4.10;;;16.80;99.90;;;;;;5014695;28;20606;-86
2023/09/18 03:35:15;;;;;;;4.40;4.00;;;16.90;99.90;;;;;;5008366;28;20197;-85
2023/09/18 03:37:41;;;;;;;4.28;3.88;;;16.90;99.90;;;;;;5013043;28;20661;-86
2023/09/18 03:40:08;;;;;;;5.50;4.50;;;16.80;99.90;;;;;;5014814;28;20210;-87
2023/09/18 03:42:36;;;;;;;5.03;4.30;;;16.80;99.90;;;;;;5013630;28;20186;-95
2023/09/18 03:45:03;;;;;;;6.35;4.05;;;16.80;99.90;;;;;;5013507;28;20183;-93
2023/09/18 03:47:28;;;;;;;5.22;3.92;;;16.80;99.90;;;;;;5013434;28;20179;-94
2023/09/18 03:49:54;;;;;;;5.28;4.32;;;16.80;99.90;;;;;;5014582;28;20249;-94
2023/09/18 03:52:20;;;;;;;5.28;3.80;;;16.70;99.90;;;;;;5014828;28;20179;-96
2023/09/18 03:54:46;;;;;;;6.80;3.72;;;16.80;99.90;;;;;;5013152;28;20269;-95
2023/09/18 03:57:11;;;;;;;5.93;4.57;;;16.80;99.90;;;;;;5013248;28;20222;-87
2023/09/18 03:59:37;;;;;;;6.60;3.97;;;16.80;99.90;;;;;;5013407;28;20602;-91
2023/09/18 04:02:11;;;;;;;6.90;3.85;;;16.80;99.90;;;;;;5013502;28;20459;-95
2023/09/18 04:04:37;;;;;;;4.82;3.78;;;16.70;99.90;;;;;;5009149;28;20179;-90
2023/09/18 04:07:06;;;;;;;5.05;4.05;;;16.70;99.90;;;;;;5014545;28;20252;-94
2023/09/18 04:09:32;;;;;;;4.72;4.20;;;16.60;99.90;;;;;;5013305;28;20186;-90
2023/09/18 04:12:00;;;;;;;5.03;3.60;;;16.60;99.90;;;;;;4995945;28;20184;-86
2023/09/18 04:14:26;;;;;;;5.47;4.20;;;16.60;99.90;;;;;;4999484;28;20172;-86
2023/09/18 04:16:52;;;;;;;4.63;4.20;;;16.60;99.90;;;;;;5002650;28;20203;-86
2023/09/18 04:19:18;;;;;;;7.43;4.35;;;16.60;99.90;;;;;;5011377;28;20185;-89
2023/09/18 04:21:44;;;;;;;7.25;4.28;;;16.60;99.90;;;;;;5019825;28;20195;-85
2023/09/18 04:24:10;;;;;;;7.28;4.43;;;16.70;99.90;;;;;;5013041;28;20187;-93
2023/09/18 04:26:37;;;;;;;6.53;4.47;;;16.70;99.90;;;;;;5014245;28;20511;-86
2023/09/18 04:29:03;;;;;;;5.28;4.43;;;16.70;99.90;;;;;;5018221;28;20213;-95
2023/09/18 04:31:29;;;;;;;8.45;4.03;;;16.80;99.90;;;;;;5017623;28;20216;-96
2023/09/18 04:33:55;;;;;;;6.05;4.22;;;16.90;99.90;;;;;;5008480;28;20660;-96
2023/09/18 04:36:21;;;;;;;5.50;4.63;;;16.90;99.90;;;;;;5015839;28;20233;-86
2023/09/18 04:38:47;;;;;;;6.03;4.53;;;16.90;99.90;;;;;;5015292;28;20246;-91
2023/09/18 04:41:14;;;;;;;6.32;5.07;;;17.00;99.90;;;;;;5018433;28;20213;-95
2023/09/18 04:43:42;;;;;;;6.40;4.43;;;17.00;99.90;;;;;;5008961;28;20187;-95
2023/09/18 04:46:08;;;;;;;5.13;4.60;;;17.00;99.90;;;;;;5010862;28;20187;-95
2023/09/18 04:48:34;;;;;;;5.15;4.65;;;17.10;99.90;;;;;;5016829;28;20189;-95
2023/09/18 04:51:00;;;;;;;7.32;4.82;;;17.10;99.90;;;;;;5007533;28;20179;-94
2023/09/18 04:53:32;;;;;;;5.05;4.55;;;17.00;99.90;;;;;;5015079;28;20183;-96
2023/09/18 04:55:58;;;;;;;6.50;4.55;;;17.10;99.90;;;;;;5009561;28;20294;-96
2023/09/18 04:58:24;;;;;;;5.07;4.47;;;17.10;99.90;;;;;;5017527;28;20268;-93
2023/09/18 05:01:00;;;;;;;5.88;4.28;;;17.10;99.90;;;;;;5019299;28;20180;-96
2023/09/18 05:03:28;;;;;;;5.90;4.63;;;17.20;99.90;;;;;;5012580;28;20278;-94
2023/09/18 05:05:54;;;;;;;5.65;4.63;;;17.40;99.90;;;;;;5016301;28;20218;-84
2023/09/18 05:08:20;;;;;;;7.32;3.95;;;17.60;99.90;;;;;;5017741;28;20211;-85
2023/09/18 05:10:47;;;;;;;6.30;4.03;;;17.80;99.90;;;;;;5016377;28;20179;-93
2023/09/18 05:13:15;;;;;;;5.00;4.18;;;18.00;99.90;;;;;;5012607;28;20175;-95
2023/09/18 05:15:40;;;;;;;5.05;3.85;;;18.20;99.90;;;;;;5016420;28;20179;-96
2023/09/18 05:18:06;;;;;;;4.63;3.85;;;18.30;99.90;;;;;;5013191;28;20188;-96
2023/09/18 05:20:35;;;;;;;4.45;4.00;;;18.40;99.90;;;;;;5014437;28;20182;-85
2023/09/18 05:23:04;;;;;;;4.50;3.65;;;18.40;99.90;;;;;;5017758;28;20185;-88
2023/09/18 05:25:31;;;;;;;5.03;3.78;;;18.50;99.90;;;;;;5016018;28;20190;-95
2023/09/18 05:27:59;;;;;;;5.05;3.80;;;18.60;99.90;;;;;;5001315;28;20202;-90
2023/09/18 05:30:34;;;;;;;6.00;3.88;;;18.70;99.90;;;;;;5016073;28;20207;-85
2023/09/18 05:33:08;;;;;;;4.15;3.67;;;18.70;99.90;;;;;;5014463;28;20631;-85
2023/09/18 05:35:36;;;;;;;5.57;3.30;;;18.80;99.90;;;;;;5009355;28;20183;-89
2023/09/18 05:38:03;;;;;;;6.68;3.85;;;18.90;99.90;;;;;;5016449;28;20246;-93
2023/09/18 05:40:29;;;;;;;6.40;3.35;;;18.90;99.90;;;;;;5013797;28;20184;-86
2023/09/18 05:42:56;;;;;;;7.03;4.00;;;19.00;99.90;;;;;;5013347;28;20200;-83
2023/09/18 05:45:22;;;;;;;4.50;3.80;;;19.10;99.90;;;;;;5005022;28;20603;-84
2023/09/18 05:47:49;;;;;;;5.10;3.70;;;19.20;99.90;;;;;;5013630;28;20187;-82
2023/09/18 05:50:16;;;;;;;4.00;3.30;;;19.20;99.90;;;;;;5016187;28;20183;-84
2023/09/18 05:52:49;;;;;;;6.35;3.35;;;19.30;99.90;;;;;;5006919;28;20230;-87
2023/09/18 05:55:15;;;;;;;4.70;3.72;;;19.40;99.90;;;;;;5009929;28;20185;-85
2023/09/18 05:57:41;;;;;;;5.45;3.70;;;19.40;99.90;;;;;;5015775;28;20720;-84
2023/09/18 06:00:11;;;;;;;5.03;3.78;;;19.40;99.90;;;;;;5014793;28;20339;-92
2023/09/18 06:02:40;;;;;;;3.42;3.13;;;19.40;99.90;;;;;;5008520;28;20622;-85
2023/09/18 06:05:06;;;;;;;3.90;3.50;;;19.40;99.90;;;;;;5016251;28;20211;-84
2023/09/18 06:07:32;;;;;;;4.20;3.50;;;19.50;99.90;;;;;;5011775;28;20245;-85
2023/09/18 06:09:58;;;;;;;4.70;3.42;;;19.50;99.90;;;;;;5014836;28;20569;-86
2023/09/18 06:12:25;;;;;;;4.05;3.50;;;19.50;99.90;;;;;;5014873;28;20187;-84
2023/09/18 06:14:52;;;;;;;6.40;3.47;;;19.60;99.90;;;;;;5014407;28;20217;-83
2023/09/18 06:17:18;;;;;;;4.50;3.30;;;19.70;99.90;;;;;;5013957;28;20581;-84
2023/09/18 06:19:45;;;;;;;5.03;3.50;;;19.80;99.90;;;;;;5014661;28;20213;-86
2023/09/18 06:22:11;;;;;;;4.20;3.13;;;20.00;99.90;;;;;;5014597;28;20226;-85
2023/09/18 06:24:37;;;;;;;3.67;3.13;;;20.10;99.90;;;;;;5015791;28;20601;-85
2023/09/18 06:27:06;;;;;;;4.55;3.25;;;20.30;99.90;;;;;;5014441;28;20190;-85
2023/09/18 06:29:37;;;;;;;4.07;2.90;;;20.30;99.90;;;;;;5014442;28;20175;-85
2023/09/18 06:32:03;;;;;;;7.38;3.60;;;20.30;99.90;;;;;;5006072;28;20194;-86
2023/09/18 06:34:29;;;;;;;4.20;3.30;;;20.30;99.90;;;;;;5015577;28;20186;-84
2023/09/18 06:36:55;;;;;;;4.15;3.15;;;20.30;99.90;;;;;;5012226;28;20214;-88
2023/09/18 06:39:22;;;;;;;6.30;2.90;;;20.20;99.90;;;;;;5010953;28;20608;-84
2023/09/18 06:41:48;;;;;;;5.45;3.13;;;20.20;99.90;;;;;;5013956;28;20183;-87
2023/09/18 06:44:13;;;;;;;4.80;3.33;;;20.20;99.90;;;;;;5013966;28;20194;-89
2023/09/18 06:46:40;;;;;;;3.53;3.08;;;20.30;99.90;;;;;;5013514;28;20656;-85
2023/09/18 06:49:06;;;;;;;6.45;2.90;;;20.40;99.90;;;;;;5015008;28;20203;-82
2023/09/18 06:51:31;;;;;;;4.47;3.15;;;20.50;99.90;;;;;;5013211;28;20244;-83
2023/09/18 06:53:57;;;;;;;4.68;3.20;;;20.70;99.90;;;;;;4999271;28;20183;-83
2023/09/18 06:56:26;;;;;;;4.15;3.20;;;20.80;99.90;;;;;;5013616;28;20219;-83
2023/09/18 06:58:52;;;;;;;5.93;3.08;;;20.90;99.90;;;;;;5013503;28;20218;-82
2023/09/18 07:01:19;;;;;;;3.70;3.20;;;20.90;99.90;;;;;;5015265;28;20187;-83
2023/09/18 07:03:46;;;;;;;3.30;3.00;;;20.90;99.90;;;;;;5013349;28;20175;-82
2023/09/18 07:06:15;;;;;;;5.55;3.50;;;20.90;99.90;;;;;;5013553;28;20269;-84
2023/09/18 07:08:42;;;;;;;4.95;2.90;;;20.90;99.90;;;;;;5011511;28;20190;-84
2023/09/18 07:11:08;;;;;;;5.95;3.15;;;20.90;99.90;;;;;;5013681;28;20187;-85
2023/09/18 07:13:34;;;;;;;4.53;3.33;;;20.80;99.90;;;;;;5013550;28;20190;-85
2023/09/18 07:16:00;;;;;;;5.03;3.53;;;20.80;99.90;;;;;;5014768;28;20213;-82
2023/09/18 07:18:26;;;;;;;3.35;3.03;;;20.90;99.90;;;;;;5013014;28;20183;-84
2023/09/18 07:20:52;;;;;;;3.72;3.05;;;20.80;99.90;;;;;;5011266;28;20270;-84
2023/09/18 07:23:17;;;;;;;3.83;3.38;;;20.80;99.90;;;;;;4996877;28;20675;-83
2023/09/18 07:25:44;;;;;;;5.07;3.30;;;20.80;99.90;;;;;;5007210;28;20665;-83
2023/09/18 07:28:15;;;;;;;4.68;3.25;;;20.70;99.90;;;;;;5006253;28;20213;-85
2023/09/18 07:30:41;;;;;;;4.00;3.17;;;20.70;99.90;;;;;;5011398;28;20175;-84
2023/09/18 07:33:07;;;;;;;4.22;3.10;;;20.70;99.90;;;;;;5014145;28;20187;-83
2023/09/18 07:35:33;;;;;;;3.30;3.00;;;20.60;99.90;;;;;;5012996;28;20183;-84
2023/09/18 07:37:59;;;;;;;3.53;3.08;;;20.60;99.90;;;;;;5011183;28;20238;-84
2023/09/18 07:40:24;;;;;;;4.35;3.20;;;20.60;99.90;;;;;;5010287;28;20172;-83
2023/09/18 07:42:51;;;;;;;3.65;2.90;;;20.60;99.90;;;;;;5013574;28;20218;-85
2023/09/18 07:45:18;;;;;;;4.45;3.00;;;20.50;99.90;;;;;;5014301;28;20186;-83
2023/09/18 07:47:43;;;;;;;5.70;3.38;;;20.50;99.90;;;;;;5013710;28;20614;-83
2023/09/18 07:50:10;;;;;;;4.85;3.17;;;20.50;99.90;;;;;;5014158;28;20183;-83
2023/09/18 07:52:36;;;;;;;3.97;3.28;;;20.40;99.90;;;;;;5014124;28;20183;-84
2023/09/18 07:55:03;;;;;;;6.03;3.60;;;20.40;99.90;;;;;;5014103;28;20281;-84
2023/09/18 07:57:30;;;;;;;4.35;3.03;;;20.40;99.90;;;;;;5012687;28;20653;-84
2023/09/18 07:59:56;;;;;;;3.50;3.13;;;20.40;99.90;;;;;;5012531;28;20187;-83
2023/09/18 08:02:22;;;;;;;3.35;3.05;;;20.40;99.90;;;;;;5013705;28;20226;-83
2023/09/18 08:04:48;;;;;;;4.55;3.38;;;20.50;99.90;;;;;;5013619;28;20187;-83
2023/09/18 08:07:14;;;;;;;4.43;3.40;;;20.50;99.90;;;;;;5012133;28;20183;-87
2023/09/18 08:09:39;;;;;;;4.00;3.45;;;20.50;99.90;;;;;;5013684;28;20178;-91
2023/09/18 08:12:09;;;;;;;5.28;3.60;;;20.50;99.90;;;;;;5013873;28;20287;-84
2023/09/18 08:14:36;;;;;;;7.15;3.35;;;20.60;99.90;;;;;;5012370;28;20253;-83
2023/09/18 08:17:05;;;;;;;4.13;3.08;;;20.60;99.90;;;;;;5013328;28;20237;-83
2023/09/18 08:19:35;;;;;;;4.10;3.53;;;20.60;99.90;;;;;;5004374;28;20186;-84
2023/09/18 08:22:01;;;;;;;7.30;3.13;;;20.70;99.90;;;;;;5028746;28;20187;-85
2023/09/18 08:24:27;;;;;;;4.53;3.33;;;20.80;99.90;;;;;;5013788;28;20186;-86
2023/09/18 08:26:54;;;;;;;4.60;3.45;;;20.90;99.90;;;;;;5011946;28;20648;-85
2023/09/18 08:29:19;;;;;;;6.18;3.67;;;20.90;99.90;;;;;;5012315;28;20633;-84
2023/09/18 08:31:46;;;;;;;8.68;3.25;;;21.00;99.90;;;;;;5013567;28;20229;-85
2023/09/18 08:34:12;;;;;;;3.63;3.22;;;21.00;99.90;;;;;;5008109;28;20189;-83
2023/09/18 08:36:38;;;;;;;4.55;3.45;;;21.00;99.90;;;;;;5003859;28;20215;-85
2023/09/18 08:39:07;;;;;;;5.22;3.10;;;21.00;99.90;;;;;;5011581;28;20265;-85
2023/09/18 08:41:35;;;;;;;3.78;3.20;;;21.00;99.90;;;;;;5013269;28;20187;-84
2023/09/18 08:44:03;;;;;;;5.30;3.55;;;21.10;99.90;;;;;;5000723;28;20191;-84
2023/09/18 08:46:30;;;;;;;7.75;3.38;;;21.20;99.90;;;;;;5008424;28;20175;-83
2023/09/18 08:48:57;;;;;;;3.80;3.40;;;21.50;99.90;;;;;;5011652;28;21033;-85
2023/09/18 08:51:23;;;;;;;6.15;3.40;;;21.80;99.90;;;;;;5013387;28;20496;-83
2023/09/18 08:53:50;;;;;;;4.82;3.30;;;22.00;99.90;;;;;;5011984;28;20237;-84
2023/09/18 08:56:17;;;;;;;5.45;3.10;;;22.20;99.90;;;;;;5011501;28;20207;-84
2023/09/18 08:58:43;;;;;;;6.32;3.25;;;22.20;99.90;;;;;;5013074;28;20187;-84
2023/09/18 09:01:10;;;;;;;5.28;3.15;;;22.30;99.90;;;;;;5013615;28;20183;-85
2023/09/18 09:03:38;;;;;;;6.75;3.40;;;22.30;99.90;;;;;;5010752;28;20196;-83
2023/09/18 09:06:05;;;;;;;5.45;3.10;;;22.50;99.90;;;;;;5011839;28;20191;-84
2023/09/18 09:08:31;;;;;;;8.40;3.50;;;22.50;99.90;;;;;;5003983;28;20221;-84
2023/09/18 09:10:59;;;;;;;5.68;3.42;;;22.50;99.90;;;;;;5012278;28;20273;-86
2023/09/18 09:13:28;;;;;;;7.13;3.42;;;22.60;99.90;;;;;;5014291;28;20258;-88
2023/09/18 09:15:56;;;;;;;6.22;3.20;;;22.50;99.90;;;;;;5005994;28;20215;-85
2023/09/18 09:18:27;;;;;;;6.00;2.90;;;22.50;99.90;;;;;;5011133;28;20274;-86
2023/09/18 09:21:03;;;;;;;6.50;3.05;;;22.50;99.90;;;;;;5015947;28;20198;-86
2023/09/18 09:23:48;;;;;;;6.63;3.08;;;22.50;99.90;;;;;;5016987;28;20183;-86
2023/09/18 09:26:16;;;;;;;6.63;3.00;;;22.50;99.90;;;;;;5011400;28;20202;-84
2023/09/18 09:28:44;;;;;;;6.78;3.13;;;22.60;99.90;;;;;;5016581;28;20187;-90
2023/09/18 09:31:13;;;;;;;4.85;2.88;;;22.50;99.90;;;;;;5015864;28;20187;-84
2023/09/18 09:33:53;;;;;;;10.95;3.60;;;22.50;99.90;;;;;;5014004;28;20194;-88
2023/09/18 09:36:20;;;;;;;12.02;3.35;;;22.50;99.90;;;;;;5015516;28;20203;-87
2023/09/18 09:38:46;;;;;;;9.20;3.40;;;22.50;99.90;;;;;;5016475;28;20218;-85
2023/09/18 09:41:15;;;;;;;3.55;2.67;;;22.50;99.90;;;;;;5016898;28;20185;-85
2023/09/18 09:43:44;;;;;;;6.55;2.92;;;22.50;99.90;;;;;;5016620;28;20218;-86
2023/09/18 09:46:21;;;;;;;8.20;3.40;;;22.50;99.90;;;;;;5011572;28;20187;-87
2023/09/18 09:49:06;;;;;;;5.15;3.22;;;22.60;99.90;;;;;;5013862;28;20210;-87
2023/09/18 09:51:34;;;;;;;7.88;3.00;;;22.60;99.90;;;;;;5016928;28;20187;-88
2023/09/18 09:54:00;;;;;;;9.48;2.90;;;22.60;99.90;;;;;;5008858;28;20264;-88
2023/09/18 09:56:53;;;;;;;7.07;2.90;;;22.70;99.90;;;;;;5016878;28;20237;-87
2023/09/18 09:59:20;;;;;;;9.32;2.70;;;22.70;99.90;;;;;;5011749;28;20220;-88
2023/09/18 10:01:50;;;;;;;7.32;2.83;;;22.70;99.90;;;;;;5015195;28;20522;-85
2023/09/18 10:04:18;;;;;;;11.65;2.65;;;22.70;99.90;;;;;;5006652;28;20235;-89
2023/09/18 10:06:52;;;;;;;6.45;2.67;;;22.70;99.90;;;;;;5014301;28;20409;-85
2023/09/18 10:09:20;;;;;;;7.38;2.83;;;22.60;99.90;;;;;;5016031;28;20175;-86
2023/09/18 10:11:52;;;;;;;5.88;2.75;;;22.60;99.90;;;;;;5014763;28;20223;-88
2023/09/18 10:14:29;;;;;;;8.02;2.60;;;22.60;99.90;;;;;;5015340;28;20183;-89
2023/09/18 10:16:58;;;;;;;10.35;2.75;;;22.50;99.90;;;;;;5008516;28;20242;-85
2023/09/18 10:19:38;;;;;;;10.00;2.65;;;22.50;99.90;;;;;;5015561;28;20187;-86
2023/09/18 10:22:22;;;;;;;8.60;2.47;;;22.50;99.90;;;;;;5015728;28;20552;-84
2023/09/18 10:24:52;;;;;;;9.10;2.22;;;22.50;99.90;;;;;;5006648;28;20615;-85
2023/09/18 10:27:21;;;;;;;11.23;2.45;;;22.50;99.90;;;;;;5006737;28;20212;-86
2023/09/18 10:29:51;;;;;;;10.48;2.47;;;22.50;99.90;;;;;;5006505;28;20613;-84
2023/09/18 10:32:20;;;;;;;7.53;2.30;;;22.50;99.90;;;;;;5014818;28;20199;-86
2023/09/18 10:34:47;;;;;;;4.45;2.00;;;22.50;99.90;;;;;;5014093;28;20194;-86
2023/09/18 10:37:15;;;;;;;5.90;2.30;;;22.50;99.90;;;;;;5008783;28;20231;-87
2023/09/18 10:39:43;;;;;;;9.15;2.15;;;22.50;99.90;;;;;;5012177;28;20293;-86
2023/09/18 10:42:10;;;;;;;6.55;2.50;;;22.50;99.90;;;;;;5015737;28;20175;-85
2023/09/18 10:44:40;;;;;;;6.60;2.63;;;22.50;99.90;;;;;;5007022;28;20175;-85
2023/09/18 10:47:08;;;;;;;7.15;2.40;;;22.50;99.90;;;;;;5013941;28;20661;-86
2023/09/18 10:49:36;;;;;;;7.97;2.33;;;22.40;99.90;;;;;;5015211;28;20199;-89
2023/09/18 10:52:03;;;;;;;12.57;2.65;;;22.40;99.90;;;;;;5014223;28;20237;-86
2023/09/18 10:54:31;;;;;;;10.45;2.45;;;22.50;99.90;;;;;;5014393;28;20197;-86
2023/09/18 10:56:57;;;;;;;8.30;2.10;;;22.50;99.90;;;;;;5006205;28;20211;-85
2023/09/18 10:59:24;;;;;;;8.88;2.60;;;22.60;99.90;;;;;;5013929;28;20533;-87
2023/09/18 11:01:50;;;;;;;4.95;1.92;;;22.60;99.90;;;;;;5015146;28;20194;-86
2023/09/18 11:04:20;;;;;;;9.85;2.75;;;22.60;99.90;;;;;;5005765;28;20581;-86
2023/09/18 11:07:05;;;;;;;12.18;3.25;;;22.60;99.90;;;;;;5013464;28;20187;-88
2023/09/18 11:09:40;;;;;;;7.45;2.67;;;22.60;99.90;;;;;;5007144;28;20269;-87
2023/09/18 11:12:06;;;;;;;7.75;2.10;;;22.60;99.90;;;;;;4991989;28;20191;-86
2023/09/18 11:14:49;;;;;;;12.13;2.60;;;22.60;99.90;;;;;;5005963;28;20253;-88
2023/09/18 11:17:36;;;;;;;6.38;2.40;;;22.70;99.90;;;;;;5012871;28;20218;-86
2023/09/18 11:20:17;;;;;;;10.05;2.50;;;22.80;99.90;;;;;;5014992;28;20183;-87
2023/09/18 11:22:48;;;;;;;9.30;2.70;;;22.90;99.90;;;;;;5008562;28;20310;-85
2023/09/18 11:25:37;;;;;;;7.60;2.22;;;22.90;99.90;;;;;;4996957;28;20502;-87
2023/09/18 11:28:07;;;;;;;9.13;2.30;;;22.90;99.90;;;;;;5010108;28;20179;-84
2023/09/18 11:30:35;;;;;;;12.20;2.40;;;23.00;99.90;;;;;;5014155;28;20190;-84
2023/09/18 11:33:05;;;;;;;7.35;2.10;;;23.00;99.90;;;;;;5011867;28;20179;-87
2023/09/18 11:35:37;;;;;;;13.38;2.60;;;23.00;99.90;;;;;;5013237;28;20576;-85
2023/09/18 11:38:08;;;;;;;15.88;2.58;;;23.00;99.90;;;;;;4990158;28;20638;-89
2023/09/18 11:40:38;;;;;;;8.07;2.63;;;23.00;99.90;;;;;;4998618;28;20498;-85
2023/09/18 11:43:25;;;;;;;13.15;2.50;;;23.00;99.90;;;;;;5001203;28;20581;-86
2023/09/18 11:45:53;;;;;;;9.00;2.40;;;23.10;99.90;;;;;;5013169;28;20634;-83
2023/09/18 11:48:20;;;;;;;8.07;2.20;;;23.20;99.90;;;;;;5013556;28;20190;-86
2023/09/18 11:50:50;;;;;;;6.50;2.20;;;23.20;99.90;;;;;;5014293;28;20211;-86
2023/09/18 11:53:20;;;;;;;6.78;2.28;;;23.30;99.90;;;;;;5013103;28;20277;-88
2023/09/18 11:55:46;;;;;;;11.38;2.25;;;23.40;99.90;;;;;;5012933;28;20179;-83
2023/09/18 11:58:14;;;;;;;11.52;2.30;;;23.50;99.90;;;;;;5014189;28;20523;-86
2023/09/18 12:00:46;;;;;;;13.02;2.50;;;23.50;99.90;;;;;;5014154;28;20622;-87
2023/09/18 12:03:28;;;;;;;6.43;2.20;;;23.60;99.90;;;;;;5013450;28;20257;-89
2023/09/18 12:06:08;;;;;;;9.30;2.05;;;23.50;99.90;;;;;;5012965;28;20187;-86
2023/09/18 12:08:35;;;;;;;7.15;2.10;;;23.40;99.90;;;;;;5013057;28;20600;-87
2023/09/18 12:11:05;;;;;;;5.75;1.85;;;23.40;99.90;;;;;;5012867;28;20190;-87
2023/09/18 12:13:31;;;;;;;6.05;1.90;;;23.40;99.90;;;;;;5012903;28;20281;-86
2023/09/18 12:16:04;;;;;;;5.80;2.30;;;23.40;99.90;;;;;;5014176;28;20190;-85
2023/09/18 12:18:32;;;;;;;7.50;2.10;;;23.30;99.90;;;;;;5012357;28;20187;-86
2023/09/18 12:21:00;;;;;;;5.82;1.90;;;23.30;99.90;;;;;;5004969;28;20191;-87
2023/09/18 12:23:27;;;;;;;7.07;1.90;;;23.20;99.90;;;;;;5012874;28;20183;-87
2023/09/18 12:26:01;;;;;;;7.68;2.15;;;23.20;99.90;;;;;;5010073;28;20192;-86
2023/09/18 12:28:28;;;;;;;5.93;2.10;;;23.30;99.90;;;;;;5008520;28;20194;-87
2023/09/18 12:30:56;;;;;;;9.35;2.20;;;23.20;99.90;;;;;;4995882;28;20179;-86
2023/09/18 12:33:24;;;;;;;8.05;2.40;;;23.30;99.90;;;;;;5012584;28;20183;-85
2023/09/18 12:35:51;;;;;;;12.88;2.33;;;23.40;99.90;;;;;;5002520;28;20515;-88
2023/09/18 12:38:26;;;;;;;10.93;2.25;;;23.60;99.90;;;;;;5006881;28;20235;-88
2023/09/18 12:40:53;;;;;;;10.05;2.28;;;23.80;99.90;;;;;;5004279;28;20176;-88
2023/09/18 12:43:19;;;;;;;6.63;2.30;;;24.00;99.90;;;;;;4989190;28;20649;-89
2023/09/18 12:45:47;;;;;;;6.47;2.40;;;24.10;99.90;;;;;;5001117;28;20523;-89
2023/09/18 12:48:13;;;;;;;6.63;2.28;;;23.90;99.90;;;;;;4993313;28;20262;-88
2023/09/18 12:50:39;;;;;;;7.72;2.10;;;23.70;99.90;;;;;;5006428;28;20186;-88